Northern Sonoma County Latest

22 Stations

15 Minute Data | America/Los_Angeles
as of 8/12/22 7:34 AM PDT
Station Date Time Temp (°F) RH (%) Dew Pt (°F) Wind Spd (mph) Wind Dir (°) Wind Gust (mph) Latest Rain (In) Daily Rain (In) Daily Min Temp (°F) Daily Max Temp (°F)
Rockpile Upper (Cooley) 8/12/22 0730 51.6   1.2 100   2 51.6   0.8 9.7   3.3 NNW | 331 12.9   3.9 0.00 0.00 50.5   1.5 53.1   2.9
Rockpile Lower (Cooley) 8/12/22 0715 55.5   1.3 86   1 51.5   1.5 2.3   1.0 NNW | 342 4.6   1.0 0.00 0.00 53.4   1.4 57.9   2.2
Cloverdale-East (Ranch 83) 8/12/22 0730 56.7   1.2 83   1 51.6   0.8 5.0   3.3 NNE | 15 13.0   8.0 0.00 0.00 56.3   1.1 61.6   1.2
Cloverdale-SE (Ranch 38) 8/12/22 0730 55.9   2.3 86   4 51.8   1.0 9.7   3.6 N | 2 16.8   6.4 0.00 0.00 55.6   1.5 61.2   2.1
Geyserville-North (Hoffman) 8/12/22 0715 52.7   0.5 83   3 47.6   0.5 0.2   0.2 E | 99 1.4   1.4 0.00 0.00 47.2   0.6 61.7   3.9
Geyserville (Ranch 3) 8/12/22 0730 56.9   1.0 79   6 50.5   1.0 0.4   0.0 ESE | 107 1.9   0.7 0.00 0.00 48.9   1.0 61.4   3.3
Geyserville-East (Ranch 40) 8/12/22 0730 60.2   2.3 76   1 52.7   1.8 3.4   2.6 NNW | 332 6.1   3.3 0.00 0.00 54.2   1.1 60.9   2.6
Geyserville-South (Nervo Station) 8/12/22 0730 56.9   0.1 81   8 51.3   2.6 0.5   0.5 E | 88 3.4   3.4 0.00 0.00 52.7   0.7 60.0   1.4
Whitton Ranch (201e) 8/12/22 0730 56.5   2.5 82   18 51.0   3.0 0.5   0.2 E | 98 1.6   0.4 0.00 0.00 43.6   2.0 58.0   3.4
Lytton East (Shop Hill Bottom) 8/12/22 0730 54.1   2.3 93   5 52.1   3.8 0.2   0.9 S | 170 1.2   1.1 0.00 0.00 47.3   5.3 56.1   2.8
Lytton East (Hill 5) 8/12/22 0730 53.9   2.0 92   8 51.5   4.2 1.0   0.4 WSW | 238 1.8   1.1 0.00 0.00 51.0   4.4 58.3   2.1
Lytton West Lower (Lew 6) 8/12/22 0730 53.3   2.9 85   14 48.8   7.1 0.0   1.2 N | 0 0.0   2.8 0.00 0.00 47.0   3.3 56.6   0.2
Lytton West Hill (23PS) 8/12/22 0730 55.7   0.1 90   9 52.8   2.8 0.1   0.9 E | 101 0.7   1.6 0.00 0.00 51.3   2.5 57.4   2.2
Lytton (River Oaks) 8/12/22 0730 53.6   0.4 81   16 48.0   5.2 0.7   0.9 SE | 125 1.5   0.8 0.00 0.00 44.2   2.1 54.5   0.2
Lytton (River Oaks Remote) 8/12/22 0730 51.2   2.8 85   15 46.8   7.3 - - - - - 42.1   2.0 52.6   1.9
Jimtown-North (Piccolo-R15) 8/12/22 0730 51.7   2.8 100   0 51.7   2.8 0.5   0.1 SSW | 200 2.4   0.9 0.00 0.00 46.3   0.7 56.3   0.1
Jimtown-NE (Red Fan) 8/12/22 0730 52.6   2.5 89   8 49.6   4.9 0.4   0.2 SE | 124 1.9   0.6 0.00 0.00 47.8   1.8 56.5   1.2
HWY 128/Chalk Hill Rd (Landslide) 8/12/22 0730 51.6   1.7 86   0 47.4   1.6 0.1   0.1 ESE | 121 0.9   0.9 0.00 0.00 44.6   1.9 54.0   1.4
N Chalk Hill Rd (Ranch 63) 8/12/22 0730 53.1   1.5 92   2 50.8   2.1 1.1   1.0 WSW | 247 2.2   1.4 0.00 0.00 44.2   2.1 57.0   1.7
Knights Valley (Bavarian Lion) 8/12/22 0730 50.4   1.8 92   4 48.2   3.0 0.6   0.5 ESE | 116 1.8   0.8 0.00 0.00 45.7   0.7 55.8   0.2
Upper Dry Creek Valley 8/12/22 0730 53.7   0.5 86   6 49.5   1.3 1.2   0.6 ENE | 63 2.4   0.9 0.00 0.00 48.8   0.8 63.0   1.7
Lower Dry Creek Valley 8/12/22 0730 55.1   2.0 77   18 48.1   3.8 0.1   1.6 SSE | 153 1.0   1.4 0.00 0.00 47.2   2.7 56.4   0.3
Max     60.2 100 52.8 9.7 - 16.8 0.00 0.00 56.3 63.0
Avg     54.2 86 50.2 1.8 - 3.8 0.00 - - -
Min     50.4 76 46.8 0.0 - 0.0 0.00 0.00 42.1 52.6